Time,TemperatureF,DewpointF,PressureIn,WindDirection,WindDirectionDegrees,WindSpeedMPH,WindSpeedGustMPH,Humidity,HourlyPrecipIn,Conditions,Clouds,dailyrainin,SoftwareType,DateUTC
2013-07-06 00:00:00,71.2,69.0,30.02,SSE,159,0.0,1.0,92,0.00,,,0.00,weatherlink.com 1.10,2013-07-06 05:00:00,
2013-07-06 00:15:00,71.1,69.0,30.02,SSE,159,0.0,0.0,93,0.00,,,0.00,weatherlink.com 1.10,2013-07-06 05:15:00,
2013-07-06 00:30:00,71.0,69.0,30.02,SSE,159,0.0,0.0,93,0.00,,,0.00,weatherlink.com 1.10,2013-07-06 05:30:00,
2013-07-06 00:45:00,70.9,69.0,30.01,SSE,159,0.0,1.0,93,0.00,,,0.00,weatherlink.com 1.10,2013-07-06 05:45:00,
2013-07-06 01:00:00,71.0,69.0,30.00,SSE,159,0.0,1.0,93,0.00,,,0.00,weatherlink.com 1.10,2013-07-06 06:00:00,
2013-07-06 01:15:00,71.0,69.0,30.02,SSE,159,1.0,2.0,93,0.00,,,0.00,weatherlink.com 1.10,2013-07-06 06:15:00,
2013-07-06 01:30:00,71.0,69.0,30.02,SSE,159,0.0,2.0,93,0.00,,,0.00,weatherlink.com 1.10,2013-07-06 06:30:00,
2013-07-06 01:45:00,71.0,69.0,30.01,SSE,159,1.0,3.0,92,0.00,,,0.00,weatherlink.com 1.10,2013-07-06 06:45:00,
2013-07-06 02:00:00,71.2,69.0,30.02,SSE,159,2.0,4.0,92,0.00,,,0.00,weatherlink.com 1.10,2013-07-06 07:00:00,
2013-07-06 02:15:00,71.2,69.0,30.02,SSE,159,1.0,4.0,92,0.00,,,0.00,weatherlink.com 1.10,2013-07-06 07:15:00,
2013-07-06 02:30:00,71.0,69.0,30.01,SSE,159,0.0,1.0,92,0.00,,,0.00,weatherlink.com 1.10,2013-07-06 07:30:00,
2013-07-06 02:45:00,70.7,69.0,30.02,SSE,159,0.0,3.0,93,0.00,,,0.00,weatherlink.com 1.10,2013-07-06 07:45:00,
2013-07-06 03:00:00,71.0,69.0,30.02,SSE,159,3.0,5.0,93,0.00,,,0.00,weatherlink.com 1.10,2013-07-06 08:00:00,
2013-07-06 03:15:00,71.0,69.0,30.02,SSE,159,1.0,5.0,93,0.00,,,0.00,weatherlink.com 1.10,2013-07-06 08:15:00,
2013-07-06 03:30:00,70.7,69.0,30.02,SSE,159,0.0,1.0,93,0.00,,,0.00,weatherlink.com 1.10,2013-07-06 08:30:00,
2013-07-06 03:45:00,70.6,69.0,30.02,SSE,159,0.0,1.0,93,0.00,,,0.00,weatherlink.com 1.10,2013-07-06 08:45:00,
2013-07-06 04:00:00,70.4,68.0,30.01,SSE,159,1.0,2.0,93,0.00,,,0.00,weatherlink.com 1.10,2013-07-06 09:00:00,
2013-07-06 04:15:00,70.3,69.0,30.02,SSE,159,0.0,3.0,94,0.00,,,0.00,weatherlink.com 1.10,2013-07-06 09:15:00,
2013-07-06 04:30:00,70.3,69.0,30.01,SSE,159,0.0,2.0,94,0.00,,,0.00,weatherlink.com 1.10,2013-07-06 09:30:00,
2013-07-06 04:45:00,70.3,69.0,30.02,SSE,159,2.0,5.0,94,0.00,,,0.00,weatherlink.com 1.10,2013-07-06 09:45:00,
2013-07-06 05:00:00,70.4,69.0,30.02,SSE,159,0.0,3.0,94,0.00,,,0.00,weatherlink.com 1.10,2013-07-06 10:00:00,
2013-07-06 05:15:00,70.4,69.0,30.02,SSE,159,0.0,2.0,94,0.00,,,0.00,weatherlink.com 1.10,2013-07-06 10:15:00,
2013-07-06 05:30:00,70.2,69.0,30.02,SSE,159,0.0,4.0,94,0.00,,,0.00,weatherlink.com 1.10,2013-07-06 10:30:00,
2013-07-06 05:45:00,69.6,67.0,30.03,SSE,159,2.0,6.0,92,0.00,,,0.00,weatherlink.com 1.10,2013-07-06 10:45:00,
2013-07-06 06:00:00,69.6,67.0,30.03,SSE,159,2.0,6.0,92,0.00,,,0.00,weatherlink.com 1.10,2013-07-06 11:00:00,
2013-07-06 06:15:00,69.5,67.0,30.03,SSE,148,6.0,8.0,92,0.00,,,0.00,weatherlink.com 1.10,2013-07-06 11:15:00,
2013-07-06 06:30:00,69.5,67.0,30.04,SSE,167,5.0,9.0,92,0.00,,,0.00,weatherlink.com 1.10,2013-07-06 11:30:00,
2013-07-06 06:45:00,69.7,67.0,30.04,SSE,167,6.0,13.0,92,0.00,,,0.00,weatherlink.com 1.10,2013-07-06 11:45:00,
2013-07-06 07:00:00,69.7,67.0,30.04,SSE,161,4.0,11.0,92,0.00,,,0.00,weatherlink.com 1.10,2013-07-06 12:00:00,
2013-07-06 07:15:00,69.9,68.0,30.04,SSE,160,4.0,9.0,92,0.00,,,0.00,weatherlink.com 1.10,2013-07-06 12:15:00,
2013-07-06 07:30:00,70.2,67.0,30.04,SSE,157,6.0,8.0,90,0.00,,,0.00,weatherlink.com 1.10,2013-07-06 12:30:00,
2013-07-06 07:45:00,70.6,68.0,30.04,South,175,6.0,10.0,90,0.00,,,0.00,weatherlink.com 1.10,2013-07-06 12:45:00,
2013-07-06 08:00:00,71.0,68.0,30.05,SE,133,7.0,10.0,90,0.00,,,0.00,weatherlink.com 1.10,2013-07-06 13:00:00,
2013-07-06 08:15:00,71.0,68.0,30.06,SSE,161,6.0,8.0,90,0.00,,,0.00,weatherlink.com 1.10,2013-07-06 13:15:00,
2013-07-06 08:30:00,71.4,68.0,30.06,SSE,155,6.0,11.0,89,0.00,,,0.00,weatherlink.com 1.10,2013-07-06 13:30:00,
2013-07-06 08:46:00,72.8,69.0,30.05,SSE,164,6.0,12.0,88,0.00,,,0.00,weatherlink.com 1.10,2013-07-06 13:46:00,
2013-07-06 09:01:00,73.7,69.0,30.05,SSE,150,7.0,12.0,86,0.00,,,0.00,weatherlink.com 1.10,2013-07-06 14:01:00,
2013-07-06 09:16:00,74.2,70.0,30.05,SSE,150,6.0,12.0,86,0.00,,,0.00,weatherlink.com 1.10,2013-07-06 14:16:00,
2013-07-06 09:31:00,75.1,70.0,30.05,South,187,11.0,11.0,83,0.00,,,0.00,weatherlink.com 1.10,2013-07-06 14:31:00,
2013-07-06 09:46:00,76.0,69.0,30.04,SSW,194,5.0,9.0,79,0.00,,,0.00,weatherlink.com 1.10,2013-07-06 14:46:00,
2013-07-06 10:01:00,76.1,69.0,30.05,SSW,207,5.0,11.0,79,0.00,,,0.00,weatherlink.com 1.10,2013-07-06 15:01:00,
2013-07-06 10:16:00,75.9,69.0,30.05,SSW,194,7.0,8.0,80,0.00,,,0.00,weatherlink.com 1.10,2013-07-06 15:16:00,
2013-07-06 10:31:00,77.5,71.0,30.05,South,172,2.0,8.0,80,0.00,,,0.00,weatherlink.com 1.10,2013-07-06 15:31:00,
2013-07-06 10:46:00,77.8,69.0,30.05,SSW,209,2.0,7.0,75,0.00,,,0.00,weatherlink.com 1.10,2013-07-06 15:46:00,
2013-07-06 11:16:00,78.2,70.0,30.05,South,182,5.0,8.0,77,0.00,,,0.00,weatherlink.com 1.10,2013-07-06 16:16:00,
2013-07-06 11:31:00,78.1,70.0,30.05,South,181,3.0,8.0,77,0.00,,,0.00,weatherlink.com 1.10,2013-07-06 16:31:00,
2013-07-06 11:46:00,78.4,70.0,30.05,South,182,4.0,7.0,76,0.00,,,0.00,weatherlink.com 1.10,2013-07-06 16:46:00,
2013-07-06 12:16:00,80.3,72.0,30.04,SE,136,1.0,8.0,75,0.00,,,0.00,weatherlink.com 1.10,2013-07-06 17:16:00,
2013-07-06 13:01:00,81.9,71.0,30.02,South,176,4.0,9.0,70,0.00,,,0.00,weatherlink.com 1.10,2013-07-06 18:01:00,
2013-07-06 13:16:00,82.1,71.0,30.02,South,185,3.0,8.0,68,0.00,,,0.00,weatherlink.com 1.10,2013-07-06 18:16:00,
2013-07-06 14:31:00,83.8,73.0,30.00,SSE,167,4.0,6.0,70,0.00,,,0.00,weatherlink.com 1.10,2013-07-06 19:31:00,
2013-07-06 14:46:00,84.6,71.0,29.99,South,171,0.0,7.0,63,0.00,,,0.00,weatherlink.com 1.10,2013-07-06 19:46:00,
2013-07-06 15:01:00,83.7,70.0,29.99,SSE,153,5.0,9.0,64,0.00,,,0.00,weatherlink.com 1.10,2013-07-06 20:01:00,
2013-07-06 15:16:00,84.0,71.0,29.98,SSE,159,2.0,8.0,64,0.00,,,0.00,weatherlink.com 1.10,2013-07-06 20:16:00,
2013-07-06 15:46:00,84.7,70.0,29.98,SSE,165,1.0,7.0,62,0.00,,,0.00,weatherlink.com 1.10,2013-07-06 20:46:00,
2013-07-06 16:16:00,84.4,72.0,29.98,SSE,156,1.0,8.0,67,0.00,,,0.00,weatherlink.com 1.10,2013-07-06 21:16:00,
2013-07-06 16:31:00,83.9,72.0,29.98,SSE,156,3.0,6.0,68,0.00,,,0.00,weatherlink.com 1.10,2013-07-06 21:31:00,
2013-07-06 16:46:00,83.7,73.0,29.97,SSE,148,6.0,7.0,69,0.00,,,0.00,weatherlink.com 1.10,2013-07-06 21:46:00,
2013-07-06 17:16:00,83.0,72.0,29.97,SSE,160,3.0,4.0,70,0.00,,,0.00,weatherlink.com 1.10,2013-07-06 22:16:00,
2013-07-06 18:02:00,81.4,72.0,29.96,SSE,161,3.0,4.0,72,0.00,,,0.00,weatherlink.com 1.10,2013-07-06 23:02:00,
2013-07-06 18:17:00,80.9,72.0,29.96,SSE,161,1.0,3.0,74,0.00,,,0.00,weatherlink.com 1.10,2013-07-06 23:17:00,
2013-07-06 18:32:00,81.0,72.0,29.97,SSE,161,2.0,4.0,73,0.00,,,0.00,weatherlink.com 1.10,2013-07-06 23:32:00,
2013-07-06 19:32:00,78.2,70.0,29.97,SSE,155,7.0,10.0,76,0.00,,,0.00,weatherlink.com 1.10,2013-07-07 00:32:00,
2013-07-06 20:02:00,77.1,71.0,29.98,SSE,150,1.0,6.0,80,0.00,,,0.00,weatherlink.com 1.10,2013-07-07 01:02:00,
2013-07-06 20:17:00,76.3,71.0,30.00,SSE,150,2.0,3.0,83,0.00,,,0.00,weatherlink.com 1.10,2013-07-07 01:17:00,
2013-07-06 20:32:00,76.0,71.0,30.00,SSE,150,3.0,7.0,84,0.00,,,0.00,weatherlink.com 1.10,2013-07-07 01:32:00,
2013-07-06 21:02:00,75.5,70.0,30.02,SSE,162,6.0,11.0,84,0.00,,,0.00,weatherlink.com 1.10,2013-07-07 02:02:00,
2013-07-06 21:32:00,73.9,69.0,30.03,SSE,157,3.0,12.0,83,0.00,,,0.00,weatherlink.com 1.10,2013-07-07 02:32:00,
2013-07-06 21:47:00,73.0,68.0,30.03,South,169,5.0,9.0,83,0.00,,,0.00,weatherlink.com 1.10,2013-07-07 02:47:00,
2013-07-06 22:32:00,69.5,63.0,30.06,WSW,240,3.0,5.0,80,0.00,,,0.00,weatherlink.com 1.10,2013-07-07 03:32:00,
2013-07-06 23:02:00,68.9,63.0,30.05,South,184,0.0,7.0,80,0.00,,,0.00,weatherlink.com 1.10,2013-07-07 04:02:00,
2013-07-06 23:17:00,67.4,63.0,30.02,SSE,161,8.0,11.0,85,0.04,,,0.04,weatherlink.com 1.10,2013-07-07 04:17:00,
2013-07-06 23:32:00,66.3,62.0,30.00,SSE,159,7.0,12.0,87,0.05,,,0.05,weatherlink.com 1.10,2013-07-07 04:32:00,
2013-07-06 23:47:00,65.7,62.0,30.00,SSE,157,0.0,6.0,88,0.05,,,0.05,weatherlink.com 1.10,2013-07-07 04:47:00,